Time;durP1;ratioP1;P1;durP2;ratioP2;P2;SDS_P1;SDS_P2;PMS_P1;PMS_P2;Temp;Humidity;BMP_temperature;BMP_pressure;BME280_temperature;BME280_humidity;BME280_pressure;Samples;Min_cycle;Max_cycle;Signal;HPM_P1;HPM_P2
2024/04/25 00:00:13;;;;;;;16.57;14.90;;;6.20;99.90;;;;;;5489684;26;20694;-64
2024/04/25 00:02:41;;;;;;;16.07;14.47;;;6.20;99.90;;;;;;5489844;26;20890;-64
2024/04/25 00:05:09;;;;;;;17.63;15.80;;;6.10;99.90;;;;;;5489514;26;20446;-64
2024/04/25 00:07:37;;;;;;;16.52;14.82;;;6.10;99.90;;;;;;5489604;26;20254;-64
2024/04/25 00:10:06;;;;;;;15.88;14.15;;;6.10;99.90;;;;;;5489656;26;20591;-64
2024/04/25 00:12:37;;;;;;;15.48;13.88;;;6.10;99.90;;;;;;5489715;26;20217;-64
2024/04/25 00:15:06;;;;;;;14.63;13.30;;;6.00;99.90;;;;;;5489582;26;20248;-64
2024/04/25 00:17:34;;;;;;;14.23;12.97;;;6.10;99.90;;;;;;5489430;26;20957;-64
2024/04/25 00:20:02;;;;;;;14.40;13.10;;;6.10;99.90;;;;;;5489420;26;20492;-64
2024/04/25 00:22:30;;;;;;;15.25;13.75;;;6.00;99.90;;;;;;5489416;26;20225;-64
2024/04/25 00:24:58;;;;;;;15.20;13.60;;;5.70;99.90;;;;;;5489419;26;20240;-64
2024/04/25 00:27:26;;;;;;;15.60;14.05;;;5.70;99.90;;;;;;5489281;26;20218;-64
2024/04/25 00:29:57;;;;;;;15.38;13.88;;;5.60;99.90;;;;;;5489246;26;20210;-64
2024/04/25 00:32:25;;;;;;;15.83;14.23;;;5.50;99.90;;;;;;5489285;26;20253;-64
2024/04/25 00:34:53;;;;;;;15.85;14.38;;;5.50;99.90;;;;;;5489198;26;20487;-64
2024/04/25 00:37:21;;;;;;;14.68;13.18;;;5.60;99.90;;;;;;5489051;26;20241;-64
2024/04/25 00:39:50;;;;;;;14.90;13.18;;;5.70;99.90;;;;;;5489943;26;20673;-64
2024/04/25 00:42:20;;;;;;;14.50;12.68;;;5.70;99.90;;;;;;5492598;26;20240;-64
2024/04/25 00:44:49;;;;;;;14.15;12.75;;;5.60;99.90;;;;;;5492736;26;20210;-64
2024/04/25 00:47:21;;;;;;;14.93;13.20;;;5.50;99.90;;;;;;5492517;26;20213;-64
2024/04/25 00:49:50;;;;;;;14.43;13.13;;;5.40;99.90;;;;;;5492478;26;20446;-64
2024/04/25 00:52:20;;;;;;;14.93;13.43;;;5.40;99.90;;;;;;5492494;26;20213;-64
2024/04/25 00:54:48;;;;;;;15.27;13.75;;;5.40;99.90;;;;;;5492437;26;20218;-64
2024/04/25 00:57:18;;;;;;;15.38;13.93;;;5.40;99.90;;;;;;5492480;26;20607;-64
2024/04/25 00:59:48;;;;;;;15.10;13.57;;;5.40;99.90;;;;;;5492426;26;20561;-64
2024/04/25 01:02:20;;;;;;;17.00;14.18;;;5.40;99.90;;;;;;5492298;26;20252;-64
2024/04/25 01:04:51;;;;;;;14.18;12.70;;;5.20;99.90;;;;;;5492341;26;20300;-64
2024/04/25 01:07:20;;;;;;;16.35;14.68;;;5.10;99.90;;;;;;5492253;26;20206;-64
2024/04/25 01:09:49;;;;;;;15.60;14.10;;;4.90;99.90;;;;;;5492268;26;20823;-64
2024/04/25 01:12:18;;;;;;;15.02;13.35;;;5.00;99.90;;;;;;5492202;26;20443;-64
2024/04/25 01:14:46;;;;;;;15.38;13.77;;;5.10;99.90;;;;;;5492077;26;20209;-64
2024/04/25 01:17:14;;;;;;;14.55;13.00;;;5.10;99.90;;;;;;5492156;26;20674;-64
2024/04/25 01:19:45;;;;;;;14.57;13.05;;;5.10;99.90;;;;;;5492114;26;20697;-64
2024/04/25 01:22:14;;;;;;;16.63;12.97;;;5.10;99.90;;;;;;5492091;26;20289;-64
2024/04/25 01:24:45;;;;;;;15.48;13.88;;;5.20;99.90;;;;;;5491917;26;20491;-64
2024/04/25 01:27:14;;;;;;;15.30;13.70;;;5.30;99.90;;;;;;5491880;26;20210;-64
2024/04/25 01:29:42;;;;;;;15.32;13.77;;;5.50;99.90;;;;;;5491984;26;20245;-64
2024/04/25 01:32:11;;;;;;;17.27;15.32;;;5.40;99.90;;;;;;5491921;26;20237;-64
2024/04/25 01:34:40;;;;;;;15.40;13.77;;;5.50;99.90;;;;;;5491914;26;20237;-64
2024/04/25 01:37:06;;;;;;;14.88;13.48;;;5.50;99.90;;;;;;5491891;26;20244;-64
2024/04/25 01:39:34;;;;;;;14.37;12.70;;;5.40;99.90;;;;;;5491855;26;20553;-64
2024/04/25 01:42:05;;;;;;;13.95;12.55;;;5.30;99.90;;;;;;5492195;26;20252;-64
2024/04/25 01:44:33;;;;;;;13.95;12.65;;;5.30;99.90;;;;;;5491787;26;20218;-64
2024/04/25 01:47:01;;;;;;;17.38;13.35;;;5.40;99.90;;;;;;5491624;26;20217;-64
2024/04/25 01:49:29;;;;;;;13.00;11.73;;;5.50;99.90;;;;;;5491746;26;20581;-64
2024/04/25 01:51:57;;;;;;;13.93;12.52;;;5.50;99.90;;;;;;5491457;26;20248;-64
2024/04/25 01:54:25;;;;;;;14.40;11.68;;;5.50;99.90;;;;;;5491434;26;20241;-64
2024/04/25 01:56:54;;;;;;;14.00;12.52;;;5.40;99.90;;;;;;5491594;26;20224;-64
2024/04/25 01:59:24;;;;;;;13.32;12.00;;;5.40;99.90;;;;;;5491564;26;20210;-64
2024/04/25 02:01:55;;;;;;;13.13;11.90;;;5.50;99.90;;;;;;5491509;26;20743;-64
2024/04/25 02:04:23;;;;;;;13.63;12.33;;;5.40;99.90;;;;;;5491393;26;20210;-64
2024/04/25 02:06:51;;;;;;;14.35;12.90;;;5.30;99.90;;;;;;5491297;26;20491;-64
2024/04/25 02:09:19;;;;;;;15.80;12.65;;;5.30;99.90;;;;;;5491412;26;20218;-64
2024/04/25 02:11:47;;;;;;;14.13;12.65;;;5.50;99.90;;;;;;5491373;26;20214;-63
2024/04/25 02:14:15;;;;;;;14.57;12.75;;;5.50;99.90;;;;;;5491254;26;20729;-64
2024/04/25 02:16:46;;;;;;;14.23;12.82;;;5.40;99.90;;;;;;5491244;26;20596;-64
2024/04/25 02:19:15;;;;;;;14.52;13.15;;;5.30;99.90;;;;;;5491250;26;20214;-64
2024/04/25 02:27:11;;;;;;;14.02;12.60;;;5.00;99.90;;;;;;5493814;26;20240;-64
2024/04/25 02:29:39;;;;;;;14.05;12.63;;;5.00;99.90;;;;;;5491106;26;20744;-64
2024/04/25 02:32:10;;;;;;;16.77;14.30;;;5.10;99.90;;;;;;5491105;26;20218;-64
2024/04/25 02:34:38;;;;;;;16.02;14.32;;;5.20;99.90;;;;;;5491163;26;20217;-64
2024/04/25 02:37:06;;;;;;;14.77;13.27;;;5.10;99.90;;;;;;5491016;26;20214;-64
2024/04/25 02:39:34;;;;;;;13.45;12.07;;;5.10;99.90;;;;;;5491033;26;20593;-64
2024/04/25 02:42:00;;;;;;;16.25;13.60;;;5.10;99.90;;;;;;5490962;26;20222;-64
2024/04/25 02:44:28;;;;;;;14.57;13.10;;;5.20;99.90;;;;;;5490834;26;20568;-64
2024/04/25 02:46:54;;;;;;;14.73;12.63;;;5.30;99.90;;;;;;5490890;26;20253;-64
2024/04/25 02:49:27;;;;;;;16.87;15.20;;;5.30;99.90;;;;;;5490750;26;20213;-64
2024/04/25 02:51:52;;;;;;;14.82;13.20;;;5.30;99.90;;;;;;5490777;26;20206;-64
2024/04/25 02:54:21;;;;;;;16.30;14.70;;;5.30;99.90;;;;;;5490684;26;20590;-64
2024/04/25 02:56:46;;;;;;;16.45;14.73;;;5.30;99.90;;;;;;5490659;26;20487;-64
2024/04/25 02:59:14;;;;;;;16.03;14.40;;;5.30;99.90;;;;;;5490636;26;20222;-64
2024/04/25 03:01:41;;;;;;;16.08;14.40;;;5.30;99.90;;;;;;5490701;26;20276;-64
2024/04/25 03:04:09;;;;;;;14.20;12.80;;;5.40;99.90;;;;;;5489707;26;20230;-64
2024/04/25 03:06:37;;;;;;;15.38;13.48;;;5.50;99.90;;;;;;5490463;26;20422;-64
2024/04/25 03:09:07;;;;;;;14.50;13.00;;;5.50;99.90;;;;;;5490479;26;20239;-64
2024/04/25 03:11:33;;;;;;;14.70;13.23;;;5.60;99.90;;;;;;5490675;26;20206;-64
2024/04/25 03:14:01;;;;;;;14.50;13.00;;;5.60;99.90;;;;;;5490402;26;20214;-64
2024/04/25 03:16:27;;;;;;;14.30;12.93;;;5.40;99.90;;;;;;5490585;26;20252;-64
2024/04/25 03:18:55;;;;;;;13.90;11.90;;;5.40;99.90;;;;;;5490380;26;20218;-64
2024/04/25 03:21:20;;;;;;;15.02;12.07;;;5.30;99.90;;;;;;5490168;26;20210;-64
2024/04/25 03:23:51;;;;;;;14.73;12.67;;;5.10;99.90;;;;;;5490250;26;20724;-64
2024/04/25 03:26:17;;;;;;;13.48;12.15;;;4.90;99.90;;;;;;5490103;26;20246;-64
2024/04/25 03:28:45;;;;;;;14.63;13.10;;;4.90;99.90;;;;;;5490384;26;20259;-64
2024/04/25 03:31:13;;;;;;;14.07;12.73;;;4.90;99.90;;;;;;5490174;26;20206;-64
2024/04/25 03:33:38;;;;;;;14.25;12.75;;;5.00;99.90;;;;;;5490116;26;20249;-64
2024/04/25 03:36:07;;;;;;;14.20;12.90;;;5.00;99.90;;;;;;5490230;26;20603;-64
2024/04/25 03:38:35;;;;;;;13.15;11.85;;;4.90;99.90;;;;;;5490043;26;20709;-63
2024/04/25 03:41:06;;;;;;;14.05;12.65;;;4.90;99.90;;;;;;5490117;26;20214;-64
2024/04/25 03:43:34;;;;;;;13.60;12.18;;;4.90;99.90;;;;;;5489978;26;20218;-64
2024/04/25 03:46:02;;;;;;;14.50;13.00;;;5.00;99.90;;;;;;5489973;26;20253;-63
2024/04/25 03:48:31;;;;;;;15.57;14.07;;;4.90;99.90;;;;;;5489868;26;20218;-64
2024/04/25 03:50:59;;;;;;;16.48;14.63;;;4.90;99.90;;;;;;5489830;26;20241;-63
2024/04/25 03:53:27;;;;;;;14.90;13.18;;;4.80;99.90;;;;;;5489801;26;20210;-64
2024/04/25 03:55:55;;;;;;;15.43;13.73;;;4.80;99.90;;;;;;5489914;26;20268;-63
2024/04/25 03:58:26;;;;;;;16.23;13.73;;;4.80;99.90;;;;;;5489749;26;20248;-63
2024/04/25 04:00:55;;;;;;;19.92;14.38;;;4.80;99.90;;;;;;5489916;26;20218;-64
2024/04/25 04:03:23;;;;;;;16.98;13.40;;;4.80;99.90;;;;;;5489639;26;20261;-64
2024/04/25 04:05:51;;;;;;;14.90;13.40;;;4.90;99.90;;;;;;5489612;26;20229;-64
2024/04/25 04:08:20;;;;;;;15.93;13.75;;;4.90;99.90;;;;;;5489720;26;20526;-64
2024/04/25 04:10:48;;;;;;;14.30;12.80;;;5.00;99.90;;;;;;5489569;26;20214;-64
2024/04/25 04:13:16;;;;;;;14.27;12.60;;;4.80;99.90;;;;;;5489617;26;20206;-63
2024/04/25 04:15:46;;;;;;;13.90;12.48;;;4.90;99.90;;;;;;5489493;26;20682;-63
2024/04/25 04:18:15;;;;;;;14.15;12.75;;;4.90;99.90;;;;;;5489517;26;20210;-64
2024/04/25 04:20:44;;;;;;;14.93;13.25;;;5.00;99.90;;;;;;5489408;26;20217;-64
2024/04/25 04:23:13;;;;;;;15.00;13.15;;;5.10;99.90;;;;;;5489406;26;20210;-64
2024/04/25 04:25:41;;;;;;;14.93;12.30;;;5.20;99.90;;;;;;5489360;26;20249;-64
2024/04/25 04:28:09;;;;;;;13.35;11.60;;;5.20;99.90;;;;;;5489054;26;20708;-64
2024/04/25 04:30:37;;;;;;;15.20;12.27;;;5.10;99.90;;;;;;5489179;26;20242;-64
2024/04/25 04:33:08;;;;;;;16.50;11.98;;;5.10;99.90;;;;;;5489110;26;20205;-64
2024/04/25 04:35:36;;;;;;;14.35;11.68;;;5.10;99.90;;;;;;5489208;26;20245;-64
2024/04/25 04:38:04;;;;;;;15.43;13.30;;;5.20;99.90;;;;;;5489010;26;20206;-63
2024/04/25 04:40:32;;;;;;;12.23;11.02;;;5.30;99.90;;;;;;5489074;26;20248;-64
2024/04/25 04:43:00;;;;;;;11.23;10.13;;;5.20;99.90;;;;;;5488902;26;20248;-64
2024/04/25 04:45:28;;;;;;;12.02;10.65;;;5.20;99.90;;;;;;5488954;26;20573;-64
2024/04/25 04:47:56;;;;;;;12.20;10.80;;;5.40;99.90;;;;;;5488771;26;20246;-64
2024/04/25 04:50:27;;;;;;;11.85;10.75;;;5.40;99.90;;;;;;5488808;26;20206;-64
2024/04/25 04:52:55;;;;;;;16.90;11.60;;;5.60;99.90;;;;;;5488851;26;20245;-63
2024/04/25 04:55:23;;;;;;;11.50;10.43;;;5.70;99.90;;;;;;5488733;26;20713;-64
2024/04/25 04:57:51;;;;;;;10.20;9.20;;;5.70;99.90;;;;;;5488639;26;20205;-63
2024/04/25 05:00:20;;;;;;;11.52;10.43;;;5.60;99.90;;;;;;5488655;26;20210;-64
2024/04/25 05:02:48;;;;;;;10.45;9.45;;;5.60;99.90;;;;;;5488479;26;20214;-64
2024/04/25 05:05:16;;;;;;;10.77;9.60;;;5.60;99.90;;;;;;5488532;26;20237;-64
2024/04/25 05:07:48;;;;;;;11.60;10.40;;;5.80;99.90;;;;;;5488303;26;20985;-64
2024/04/25 05:10:16;;;;;;;10.40;9.37;;;5.70;99.90;;;;;;5488089;26;21014;-64
2024/04/25 05:12:44;;;;;;;10.10;9.18;;;5.80;99.90;;;;;;5488105;26;20450;-63
2024/04/25 05:15:12;;;;;;;14.45;10.10;;;5.90;99.90;;;;;;5488351;26;20214;-63
2024/04/25 05:17:40;;;;;;;10.90;9.07;;;5.90;99.90;;;;;;5488192;26;20567;-63
2024/04/25 05:20:09;;;;;;;10.50;9.50;;;6.10;99.90;;;;;;5488303;26;20214;-63
2024/04/25 05:22:39;;;;;;;11.30;9.48;;;6.20;99.90;;;;;;5488033;26;21026;-64
2024/04/25 05:25:10;;;;;;;9.45;8.57;;;6.30;99.90;;;;;;5488283;26;20237;-64
2024/04/25 05:27:39;;;;;;;10.68;9.60;;;6.20;99.90;;;;;;5491703;26;20217;-64
2024/04/25 05:30:08;;;;;;;10.05;8.43;;;6.10;99.90;;;;;;5491751;26;20256;-64
2024/04/25 05:32:36;;;;;;;11.32;9.80;;;6.10;99.90;;;;;;5492019;26;20211;-64
2024/04/25 05:35:05;;;;;;;10.23;9.27;;;6.00;99.90;;;;;;5491734;26;20959;-64
2024/04/25 05:37:33;;;;;;;9.52;8.63;;;6.10;99.90;;;;;;5491601;26;20439;-64
2024/04/25 05:40:01;;;;;;;9.52;8.52;;;6.30;99.90;;;;;;5491547;26;20233;-64
2024/04/25 05:42:32;;;;;;;9.70;8.80;;;6.50;99.90;;;;;;5491497;26;20219;-64
2024/04/25 05:45:00;;;;;;;11.18;9.98;;;6.40;99.90;;;;;;5491508;26;20238;-64
2024/04/25 05:47:28;;;;;;;12.40;9.85;;;6.40;99.90;;;;;;5491439;26;20232;-63
2024/04/25 05:49:56;;;;;;;9.87;8.97;;;6.50;99.90;;;;;;5491447;26;20217;-63
2024/04/25 05:52:26;;;;;;;10.63;9.50;;;6.50;99.90;;;;;;5491474;26;20455;-63
2024/04/25 05:54:55;;;;;;;9.27;8.38;;;6.70;99.90;;;;;;5491374;26;20455;-64
2024/04/25 05:57:23;;;;;;;9.83;8.93;;;6.90;99.90;;;;;;5491432;26;20253;-64
2024/04/25 05:59:53;;;;;;;9.60;8.70;;;7.00;99.90;;;;;;5491491;26;20439;-64
2024/04/25 06:02:24;;;;;;;11.60;9.03;;;7.10;99.90;;;;;;5491340;26;20763;-64
2024/04/25 06:04:52;;;;;;;9.87;8.93;;;7.20;99.90;;;;;;5491335;26;20454;-64
2024/04/25 06:07:20;;;;;;;9.23;8.43;;;7.20;99.90;;;;;;5491059;26;20447;-64
2024/04/25 06:09:49;;;;;;;9.60;8.50;;;7.30;99.90;;;;;;5491287;26;20443;-64
2024/04/25 06:12:17;;;;;;;9.83;8.50;;;7.40;99.90;;;;;;5491222;26;20495;-64
2024/04/25 06:14:45;;;;;;;9.00;8.20;;;7.50;99.90;;;;;;5491087;26;20447;-64
2024/04/25 06:17:16;;;;;;;9.97;8.97;;;7.60;99.90;;;;;;5490983;26;20435;-64
2024/04/25 06:19:47;;;;;;;15.90;8.50;;;7.70;99.90;;;;;;5491006;26;20962;-64
2024/04/25 06:22:15;;;;;;;9.20;8.33;;;7.70;99.90;;;;;;5491142;26;20491;-64
2024/04/25 06:24:44;;;;;;;8.53;7.80;;;7.60;99.90;;;;;;5490977;26;20443;-64
2024/04/25 06:27:12;;;;;;;13.83;8.40;;;7.70;99.90;;;;;;5490948;26;20439;-64
2024/04/25 06:29:40;;;;;;;9.63;8.63;;;7.60;99.90;;;;;;5490800;26;20475;-64
2024/04/25 06:32:08;;;;;;;8.83;7.87;;;7.70;99.90;;;;;;5490842;26;20432;-64
2024/04/25 06:34:39;;;;;;;9.77;8.77;;;7.80;99.90;;;;;;5490679;26;20455;-64
2024/04/25 06:37:09;;;;;;;9.27;8.47;;;7.90;99.90;;;;;;5489663;26;20424;-64
2024/04/25 06:39:38;;;;;;;9.63;8.73;;;8.00;99.90;;;;;;5490825;26;20451;-64
2024/04/25 06:42:06;;;;;;;15.93;8.47;;;8.00;99.90;;;;;;5490748;26;20447;-64
2024/04/25 06:44:34;;;;;;;9.90;9.00;;;8.10;99.90;;;;;;5490749;26;20498;-64
2024/04/25 06:47:03;;;;;;;10.43;8.50;;;8.00;99.90;;;;;;5490576;26;20447;-65
2024/04/25 06:49:31;;;;;;;9.77;8.80;;;8.10;99.90;;;;;;5490756;26;20446;-64
2024/04/25 06:52:01;;;;;;;9.50;8.60;;;8.10;99.90;;;;;;5490633;26;20506;-64
2024/04/25 06:54:30;;;;;;;9.07;8.23;;;8.20;99.90;;;;;;5490482;26;21045;-64
2024/04/25 06:56:58;;;;;;;13.80;8.20;;;8.30;99.90;;;;;;5490574;26;20423;-65
2024/04/25 06:59:27;;;;;;;8.83;7.60;;;8.20;99.90;;;;;;5490433;26;20495;-64
2024/04/25 07:01:55;;;;;;;8.90;8.07;;;8.00;99.90;;;;;;5490151;26;20781;-64
2024/04/25 07:04:24;;;;;;;8.13;7.33;;;8.10;99.90;;;;;;5489707;26;20804;-61
2024/04/25 07:06:52;;;;;;;8.77;7.67;;;8.00;99.90;;;;;;5490155;26;20451;-66
2024/04/25 07:09:24;;;;;;;11.07;7.40;;;8.10;99.90;;;;;;5489980;26;20495;-64
2024/04/25 07:11:53;;;;;;;7.43;6.83;;;8.10;99.90;;;;;;5490267;26;20455;-65
2024/04/25 07:14:22;;;;;;;12.13;9.87;;;8.20;99.90;;;;;;5490248;26;20447;-63
2024/04/25 07:16:50;;;;;;;8.90;8.10;;;8.40;99.90;;;;;;5490240;26;20499;-65
2024/04/25 07:19:18;;;;;;;8.20;7.40;;;8.50;99.90;;;;;;5490213;26;20478;-64
2024/04/25 07:21:46;;;;;;;8.47;7.67;;;8.60;99.90;;;;;;5490132;26;20496;-63
2024/04/25 07:24:15;;;;;;;8.20;7.47;;;8.80;99.90;;;;;;5490158;26;20476;-62
2024/04/25 07:26:45;;;;;;;9.00;7.87;;;8.70;99.90;;;;;;5489771;26;20986;-62
2024/04/25 07:29:14;;;;;;;8.40;7.47;;;8.80;99.90;;;;;;5490429;26;20489;-63
2024/04/25 07:31:42;;;;;;;9.57;7.90;;;8.70;99.90;;;;;;5490056;26;20529;-62
2024/04/25 07:34:10;;;;;;;8.60;7.03;;;8.70;99.90;;;;;;5489958;26;20451;-63
2024/04/25 07:36:38;;;;;;;8.53;7.73;;;8.80;99.90;;;;;;5489865;26;20451;-63
2024/04/25 07:39:06;;;;;;;8.53;7.73;;;8.70;99.90;;;;;;5489840;26;20447;-63
2024/04/25 07:41:34;;;;;;;7.33;6.70;;;8.60;99.90;;;;;;5489611;26;20831;-61
2024/04/25 07:44:05;;;;;;;8.40;7.60;;;8.60;99.90;;;;;;5489845;26;20439;-69
2024/04/25 07:46:33;;;;;;;7.20;6.50;;;8.60;99.90;;;;;;5489740;26;20507;-63
2024/04/25 07:49:04;;;;;;;7.87;7.27;;;8.80;99.90;;;;;;5489095;26;20458;-63
2024/04/25 07:51:32;;;;;;;6.63;6.13;;;8.80;99.90;;;;;;5489608;26;20447;-63
2024/04/25 07:54:01;;;;;;;7.80;7.10;;;8.90;99.90;;;;;;5489599;26;20463;-63
2024/04/25 07:56:29;;;;;;;8.07;7.27;;;8.90;99.90;;;;;;5489753;26;20443;-61
2024/04/25 07:58:57;;;;;;;7.10;6.50;;;8.90;99.90;;;;;;5489401;26;20694;-62
2024/04/25 08:01:28;;;;;;;7.77;7.17;;;9.00;99.90;;;;;;5489456;26;20451;-61
2024/04/25 08:03:56;;;;;;;9.10;8.20;;;9.20;99.90;;;;;;5489560;26;20507;-61
2024/04/25 08:06:24;;;;;;;7.67;6.97;;;9.30;99.90;;;;;;5489314;26;20454;-63
2024/04/25 08:08:52;;;;;;;8.27;7.47;;;9.30;99.90;;;;;;5489716;26;20435;-62
2024/04/25 08:11:21;;;;;;;8.30;7.60;;;9.20;99.90;;;;;;5489305;26;20489;-62
2024/04/25 08:13:49;;;;;;;10.23;7.33;;;9.20;99.90;;;;;;5489490;26;20481;-61
2024/04/25 08:16:17;;;;;;;10.47;8.60;;;9.20;99.90;;;;;;5489242;26;20442;-62
2024/04/25 08:18:48;;;;;;;9.80;8.97;;;9.10;99.90;;;;;;5489090;26;20792;-62
2024/04/25 08:21:16;;;;;;;10.17;9.10;;;9.00;99.90;;;;;;5489284;26;20443;-62
2024/04/25 08:23:44;;;;;;;10.10;9.20;;;9.00;99.90;;;;;;5489165;26;20958;-62
2024/04/25 08:26:12;;;;;;;12.33;10.80;;;8.90;99.90;;;;;;5489071;26;20493;-62
2024/04/25 08:28:40;;;;;;;10.57;9.57;;;9.00;99.90;;;;;;5488996;26;20491;-62
2024/04/25 08:31:08;;;;;;;14.53;9.43;;;8.90;99.90;;;;;;5489065;26;20478;-62
2024/04/25 08:33:36;;;;;;;10.10;9.10;;;8.90;99.90;;;;;;5489141;26;20426;-65
2024/04/25 08:36:08;;;;;;;10.77;9.77;;;9.00;99.90;;;;;;5488948;26;20954;-64
2024/04/25 08:38:38;;;;;;;10.20;9.20;;;9.10;99.90;;;;;;5488964;26;20558;-64
2024/04/25 08:41:06;;;;;;;12.43;11.27;;;9.00;99.90;;;;;;5488902;26;20497;-62
2024/04/25 08:43:36;;;;;;;13.40;12.03;;;8.90;99.90;;;;;;5488608;26;20864;-61
2024/04/25 08:46:05;;;;;;;12.90;11.60;;;8.90;99.90;;;;;;5488733;26;20439;-61
2024/04/25 08:48:35;;;;;;;13.00;11.53;;;8.80;99.90;;;;;;5488614;26;20483;-61
2024/04/25 08:51:03;;;;;;;13.23;12.03;;;8.70;99.90;;;;;;5488763;26;20487;-61
2024/04/25 08:53:34;;;;;;;13.40;12.10;;;8.80;99.90;;;;;;5488635;26;20462;-62
2024/04/25 08:56:04;;;;;;;13.63;12.40;;;8.80;99.90;;;;;;5488429;26;20447;-61
2024/04/25 08:58:32;;;;;;;12.10;11.07;;;8.80;99.90;;;;;;5488473;26;20525;-64
2024/04/25 09:01:02;;;;;;;13.77;12.37;;;8.80;99.90;;;;;;5489668;26;20446;-63
2024/04/25 09:03:30;;;;;;;14.27;12.87;;;8.90;99.90;;;;;;5491942;26;20485;-63
2024/04/25 09:05:58;;;;;;;14.33;12.23;;;9.10;99.90;;;;;;5492239;26;20443;-61
2024/04/25 09:08:26;;;;;;;11.30;10.20;;;8.90;99.90;;;;;;5491972;26;20438;-61
2024/04/25 09:10:59;;;;;;;12.80;11.60;;;9.10;99.90;;;;;;5491718;26;20447;-64
2024/04/25 09:13:27;;;;;;;12.00;10.90;;;9.20;99.90;;;;;;5492086;26;20942;-63
2024/04/25 09:15:55;;;;;;;13.97;12.60;;;9.30;99.90;;;;;;5492181;26;20479;-62
2024/04/25 09:18:25;;;;;;;13.57;11.63;;;9.30;99.90;;;;;;5491981;26;20447;-62
2024/04/25 09:20:54;;;;;;;12.13;10.93;;;9.50;99.90;;;;;;5491913;26;20501;-61
2024/04/25 09:23:22;;;;;;;12.83;11.60;;;9.40;99.90;;;;;;5491825;26;20490;-62
2024/04/25 09:25:50;;;;;;;13.30;12.00;;;9.40;99.90;;;;;;5491859;26;20580;-62
2024/04/25 09:28:21;;;;;;;12.47;11.17;;;9.50;99.90;;;;;;5491713;26;20443;-62
2024/04/25 09:30:49;;;;;;;12.20;11.00;;;9.50;99.90;;;;;;5491835;26;20426;-62
2024/04/25 09:33:20;;;;;;;11.53;10.53;;;9.50;99.90;;;;;;5491511;26;20463;-61
2024/04/25 09:35:50;;;;;;;12.67;11.47;;;9.40;99.90;;;;;;5491270;26;20491;-62
2024/04/25 09:38:18;;;;;;;14.67;9.97;;;9.40;99.90;;;;;;5491673;26;20535;-61
2024/04/25 09:40:48;;;;;;;10.77;9.87;;;9.40;99.90;;;;;;5491511;26;20446;-64
2024/04/25 09:43:18;;;;;;;11.40;10.27;;;9.50;99.90;;;;;;5491483;26;20434;-63
2024/04/25 09:45:48;;;;;;;10.23;9.30;;;9.60;99.90;;;;;;5491437;26;20877;-63
2024/04/25 09:48:20;;;;;;;10.60;9.50;;;9.70;99.90;;;;;;5491478;26;20495;-63
2024/04/25 09:50:49;;;;;;;9.80;9.00;;;9.80;99.90;;;;;;5491520;26;20498;-68
2024/04/25 09:53:24;;;;;;;9.37;8.67;;;9.70;99.90;;;;;;5491427;26;20443;-68
2024/04/25 09:55:53;;;;;;;11.90;9.10;;;9.90;99.90;;;;;;5491697;26;20506;-63
2024/04/25 09:58:28;;;;;;;8.60;7.80;;;10.20;99.90;;;;;;5491447;26;20451;-62
2024/04/25 10:00:59;;;;;;;8.37;7.47;;;10.50;99.90;;;;;;5491297;26;20499;-62
2024/04/25 10:03:29;;;;;;;7.83;7.20;;;10.70;99.90;;;;;;5491263;26;21026;-63
2024/04/25 10:05:57;;;;;;;7.60;6.90;;;10.90;99.90;;;;;;5491197;26;20502;-61
2024/04/25 10:08:25;;;;;;;6.90;6.40;;;10.80;99.90;;;;;;5490997;26;20488;-61
2024/04/25 10:10:54;;;;;;;6.50;6.00;;;10.80;99.90;;;;;;5490427;26;20819;-61
2024/04/25 10:13:26;;;;;;;6.93;6.43;;;10.80;99.90;;;;;;5489750;26;20451;-61
2024/04/25 10:15:56;;;;;;;6.33;5.83;;;10.60;99.90;;;;;;5490732;26;20446;-61
2024/04/25 10:18:28;;;;;;;5.63;5.23;;;10.60;99.90;;;;;;5490810;26;20510;-65
2024/04/25 10:21:03;;;;;;;5.60;5.20;;;10.70;99.90;;;;;;5490912;26;20918;-66
2024/04/25 10:23:35;;;;;;;5.80;5.40;;;10.90;99.90;;;;;;5490337;26;20439;-65
2024/04/25 10:26:03;;;;;;;6.27;5.77;;;11.10;99.90;;;;;;5489987;26;20431;-65
2024/04/25 10:28:31;;;;;;;6.70;6.10;;;11.10;99.90;;;;;;5487556;26;20497;-64
2024/04/25 10:31:00;;;;;;;5.47;5.07;;;11.20;99.90;;;;;;5486996;26;20489;-62
2024/04/25 10:33:31;;;;;;;6.17;5.53;;;11.30;99.90;;;;;;5487216;26;20454;-60
2024/04/25 10:36:05;;;;;;;5.20;4.80;;;11.30;99.90;;;;;;5487247;26;20439;-61
2024/04/25 10:38:33;;;;;;;4.90;4.50;;;11.30;99.90;;;;;;5487385;26;20824;-63
2024/04/25 10:41:01;;;;;;;4.50;4.20;;;11.30;99.90;;;;;;5488148;26;20447;-61
2024/04/25 10:43:29;;;;;;;4.80;4.50;;;11.40;99.90;;;;;;5490586;26;20443;-61
2024/04/25 10:45:57;;;;;;;3.90;3.60;;;11.40;99.90;;;;;;5490554;26;20781;-61
2024/04/25 10:48:25;;;;;;;5.27;4.87;;;11.30;99.90;;;;;;5490553;26;20435;-61
2024/04/25 10:50:56;;;;;;;4.27;4.00;;;10.80;99.90;;;;;;5490398;26;20443;-62
2024/04/25 10:53:25;;;;;;;4.90;4.60;;;11.00;99.90;;;;;;5490312;26;20775;-63
2024/04/25 10:55:53;;;;;;;4.30;4.10;;;11.30;99.90;;;;;;5490331;26;20475;-63
2024/04/25 10:58:21;;;;;;;4.40;3.93;;;11.30;99.90;;;;;;5490735;26;20455;-62
2024/04/25 11:00:49;;;;;;;3.90;3.70;;;11.30;99.90;;;;;;5490361;26;20479;-61
2024/04/25 11:03:18;;;;;;;3.60;3.40;;;11.50;99.90;;;;;;5490281;26;20949;-64
2024/04/25 11:05:47;;;;;;;3.83;3.63;;;11.80;99.90;;;;;;5489891;26;20498;-62
2024/04/25 11:08:18;;;;;;;3.70;3.40;;;11.70;99.90;;;;;;5490201;26;20778;-63
2024/04/25 11:10:46;;;;;;;3.07;2.87;;;11.90;99.90;;;;;;5489538;26;20447;-64
2024/04/25 11:13:15;;;;;;;3.43;3.23;;;12.20;99.90;;;;;;5490220;26;20541;-63
2024/04/25 11:15:44;;;;;;;4.10;3.80;;;12.30;99.90;;;;;;5490173;26;20455;-63
2024/04/25 11:18:12;;;;;;;3.23;3.03;;;12.60;99.90;;;;;;5490035;26;20510;-67
2024/04/25 11:20:42;;;;;;;3.30;3.00;;;12.70;99.90;;;;;;5490375;26;20439;-65
2024/04/25 11:23:14;;;;;;;4.83;3.60;;;12.60;99.90;;;;;;5489095;26;20970;-65
2024/04/25 11:25:45;;;;;;;4.07;3.77;;;12.40;99.90;;;;;;5489991;26;20787;-62
2024/04/25 11:28:13;;;;;;;5.73;3.47;;;12.00;99.90;;;;;;5489891;26;20451;-63
2024/04/25 11:30:42;;;;;;;2.50;2.30;;;11.40;99.90;;;;;;5490138;26;20431;-63
2024/04/25 11:33:10;;;;;;;4.37;2.70;;;11.20;99.90;;;;;;5489702;26;21014;-62
2024/04/25 11:35:39;;;;;;;3.07;2.37;;;11.00;99.90;;;;;;5489632;26;20447;-63
2024/04/25 11:38:07;;;;;;;2.10;2.00;;;10.90;99.90;;;;;;5489992;26;20973;-64
2024/04/25 11:40:39;;;;;;;2.70;2.50;;;10.90;99.90;;;;;;5490022;26;20562;-60
2024/04/25 11:43:10;;;;;;;2.10;2.00;;;10.90;99.90;;;;;;5489839;26;20443;-61
2024/04/25 11:45:41;;;;;;;2.43;2.27;;;10.90;99.90;;;;;;5489731;26;20439;-61
2024/04/25 11:48:10;;;;;;;2.60;2.40;;;10.80;99.90;;;;;;5489799;26;20582;-62
2024/04/25 11:50:38;;;;;;;6.50;2.97;;;10.70;99.90;;;;;;5489581;26;20568;-62
2024/04/25 11:53:09;;;;;;;2.60;2.50;;;10.50;99.90;;;;;;5489558;26;20491;-63
2024/04/25 11:55:37;;;;;;;2.50;2.27;;;10.50;99.90;;;;;;5489469;26;21083;-62
2024/04/25 11:58:07;;;;;;;2.27;2.13;;;10.50;99.90;;;;;;5489536;26;20439;-61
2024/04/25 12:00:38;;;;;;;2.10;2.00;;;10.60;99.90;;;;;;5489029;26;20934;-66
2024/04/25 12:03:07;;;;;;;5.50;5.00;;;10.70;99.90;;;;;;5489492;26;20440;-61
2024/04/25 12:05:35;;;;;;;5.93;2.50;;;10.60;99.90;;;;;;5489394;26;20495;-62
2024/04/25 12:08:06;;;;;;;2.57;2.37;;;10.60;99.90;;;;;;5489083;26;20506;-61
2024/04/25 12:10:34;;;;;;;2.43;2.30;;;10.70;99.90;;;;;;5489416;26;20489;-65
2024/04/25 12:13:07;;;;;;;3.00;2.63;;;10.90;99.90;;;;;;5489338;26;20443;-63
2024/04/25 12:15:39;;;;;;;2.03;1.93;;;11.30;99.90;;;;;;5489351;26;20443;-63
2024/04/25 12:18:07;;;;;;;2.27;2.17;;;11.80;99.90;;;;;;5489339;26;20450;-63
2024/04/25 12:20:36;;;;;;;2.63;2.43;;;12.20;99.90;;;;;;5489127;26;20541;-61
2024/04/25 12:23:04;;;;;;;2.13;2.03;;;12.30;99.90;;;;;;5489044;26;20450;-61
2024/04/25 12:25:32;;;;;;;3.23;2.23;;;12.70;99.90;;;;;;5489330;26;20826;-61
2024/04/25 12:28:00;;;;;;;2.23;2.00;;;12.80;99.90;;;;;;5489129;26;20499;-62
2024/04/25 12:30:29;;;;;;;2.40;2.20;;;12.90;99.90;;;;;;5488835;26;20448;-62
2024/04/25 12:33:00;;;;;;;2.67;2.47;;;13.00;99.90;;;;;;5487868;26;20355;-62
2024/04/25 12:35:28;;;;;;;2.70;2.50;;;13.00;99.90;;;;;;5486778;26;20363;-65
2024/04/25 12:37:56;;;;;;;2.67;2.47;;;13.00;99.90;;;;;;5488919;26;20214;-59
2024/04/25 12:40:24;;;;;;;2.30;2.20;;;13.40;99.90;;;;;;5488856;26;20447;-61
2024/04/25 12:42:53;;;;;;;2.40;2.20;;;13.40;99.90;;;;;;5488915;26;20450;-61
2024/04/25 12:45:22;;;;;;;2.53;2.37;;;13.60;99.90;;;;;;5488768;26;20453;-61
2024/04/25 12:47:50;;;;;;;2.20;2.10;;;13.70;99.90;;;;;;5488807;26;20439;-64
2024/04/25 12:50:21;;;;;;;2.50;2.33;;;13.80;99.90;;;;;;5488721;26;20457;-62
2024/04/25 12:52:49;;;;;;;3.03;2.83;;;13.80;99.90;;;;;;5488576;26;20440;-63
2024/04/25 12:55:17;;;;;;;2.63;2.50;;;13.60;99.90;;;;;;5488595;26;21056;-63